Time;durP1;ratioP1;P1;durP2;ratioP2;P2;SDS_P1;SDS_P2;PMS_P1;PMS_P2;Temp;Humidity;BMP_temperature;BMP_pressure;BME280_temperature;BME280_humidity;BME280_pressure;Samples;Min_cycle;Max_cycle;Signal;HPM_P1;HPM_P2
2022/05/11 00:01:30;;;;;;;4.00;2.87;;;18.60;95.50;;;;;;5051669;28;20216;-70
2022/05/11 00:03:57;;;;;;;4.73;2.60;;;18.70;95.70;;;;;;5051781;28;20500;-70
2022/05/11 00:06:23;;;;;;;4.87;3.27;;;18.70;95.50;;;;;;5052274;28;20170;-71
2022/05/11 00:08:49;;;;;;;3.73;2.40;;;18.70;95.70;;;;;;5052197;28;20409;-69
2022/05/11 00:11:15;;;;;;;3.83;3.30;;;18.70;95.90;;;;;;5051468;28;20408;-69
2022/05/11 00:13:41;;;;;;;3.80;3.30;;;18.80;96.30;;;;;;5051727;28;20194;-71
2022/05/11 00:16:06;;;;;;;3.30;3.00;;;18.70;96.90;;;;;;5051956;28;20419;-68
2022/05/11 00:18:32;;;;;;;3.73;3.30;;;18.70;97.10;;;;;;5052255;28;20181;-69
2022/05/11 00:20:57;;;;;;;3.70;3.37;;;18.60;96.80;;;;;;5051870;28;20627;-70
2022/05/11 00:23:23;;;;;;;3.33;3.03;;;18.60;96.90;;;;;;5051380;28;20251;-70
2022/05/11 00:25:48;;;;;;;4.87;3.17;;;18.60;96.70;;;;;;5051793;28;20181;-70
2022/05/11 00:28:14;;;;;;;4.27;3.23;;;18.60;97.00;;;;;;5051888;28;20577;-70
2022/05/11 00:30:40;;;;;;;6.03;3.20;;;18.50;96.80;;;;;;5051426;28;20209;-69
2022/05/11 00:33:06;;;;;;;3.93;3.00;;;18.40;96.90;;;;;;5051314;28;20596;-69
2022/05/11 00:35:34;;;;;;;4.60;3.60;;;18.30;97.00;;;;;;5051776;28;20412;-70
2022/05/11 00:38:01;;;;;;;3.57;3.27;;;18.30;97.20;;;;;;5053131;28;20404;-70
2022/05/11 00:40:27;;;;;;;3.20;2.90;;;18.30;97.30;;;;;;5055499;28;20478;-70
2022/05/11 00:42:53;;;;;;;3.77;3.20;;;18.30;97.50;;;;;;5055498;28;20452;-70
2022/05/11 00:45:19;;;;;;;3.83;3.03;;;18.30;97.60;;;;;;5055634;28;20925;-69
2022/05/11 00:49:33;;;;;;;3.30;2.90;;;18.30;97.40;;;;;;5055829;28;20400;-69
2022/05/11 00:50:50;;;;;;;2.87;2.67;;;18.20;97.50;;;;;;5055014;28;20439;-68
2022/05/11 00:53:17;;;;;;;3.53;3.00;;;18.10;97.90;;;;;;5055632;28;20428;-69
2022/05/11 00:55:57;;;;;;;2.97;2.63;;;18.20;98.00;;;;;;5055293;28;20211;-69
2022/05/11 00:58:25;;;;;;;4.30;2.87;;;18.20;98.20;;;;;;5056177;28;20400;-70
2022/05/11 01:00:51;;;;;;;2.97;2.77;;;18.20;98.30;;;;;;5055456;28;20784;-69
2022/05/11 01:03:20;;;;;;;4.93;3.30;;;18.20;99.00;;;;;;5055787;28;20468;-70
2022/05/11 01:05:47;;;;;;;3.40;3.03;;;18.10;99.10;;;;;;5056021;28;20204;-69
2022/05/11 01:08:15;;;;;;;5.07;3.13;;;18.10;98.80;;;;;;5056382;28;20974;-70
2022/05/11 01:10:41;;;;;;;3.27;2.80;;;18.10;98.50;;;;;;5055730;28;20438;-70
2022/05/11 01:13:09;;;;;;;4.30;2.77;;;18.20;98.40;;;;;;5055906;28;20792;-69
2022/05/11 01:15:36;;;;;;;3.70;3.40;;;18.10;98.20;;;;;;5057788;28;20492;-71
2022/05/11 01:18:05;;;;;;;3.10;2.70;;;18.10;98.10;;;;;;5059602;28;20417;-70
2022/05/11 01:20:33;;;;;;;3.43;3.10;;;18.10;98.20;;;;;;5058633;28;20412;-70
2022/05/11 01:23:20;;;;;;;5.00;3.30;;;18.10;98.40;;;;;;5057984;28;20459;-70
2022/05/11 01:25:46;;;;;;;3.60;2.90;;;18.10;98.20;;;;;;5056351;28;20412;-69
2022/05/11 01:28:14;;;;;;;3.43;2.90;;;18.10;98.00;;;;;;5037207;28;20925;-69
2022/05/11 01:30:42;;;;;;;3.70;2.90;;;18.10;97.80;;;;;;5057449;28;20198;-70
2022/05/11 01:33:09;;;;;;;3.80;3.07;;;18.10;97.90;;;;;;5062848;28;20440;-70
2022/05/11 01:36:00;;;;;;;4.97;3.13;;;18.10;98.60;;;;;;5040962;28;20944;-70
2022/05/11 01:38:40;;;;;;;4.80;2.90;;;18.10;98.60;;;;;;5027456;28;20937;-70
2022/05/11 01:41:16;;;;;;;3.00;2.80;;;18.00;98.60;;;;;;5064362;28;20428;-69
2022/05/11 01:43:41;;;;;;;3.70;3.00;;;18.10;98.70;;;;;;5060063;28;20467;-69
2022/05/11 01:46:09;;;;;;;3.03;2.73;;;18.20;98.60;;;;;;5055569;28;20423;-70
2022/05/11 01:48:35;;;;;;;4.23;2.63;;;18.30;98.40;;;;;;5054767;28;20208;-69
2022/05/11 01:51:01;;;;;;;5.87;3.37;;;18.30;98.10;;;;;;5054133;28;20839;-69
2022/05/11 01:53:27;;;;;;;3.67;3.30;;;18.30;98.10;;;;;;5058960;28;20198;-70
2022/05/11 01:55:53;;;;;;;3.50;2.63;;;18.40;98.00;;;;;;5058309;28;20500;-69
2022/05/11 01:58:20;;;;;;;4.37;3.30;;;18.30;97.80;;;;;;5069521;28;20788;-69
2022/05/11 02:00:47;;;;;;;4.60;3.07;;;18.20;98.00;;;;;;5056148;28;20546;-69
2022/05/11 02:03:13;;;;;;;2.93;2.73;;;18.10;98.20;;;;;;5073747;28;20528;-69
2022/05/11 02:08:25;;;;;;;3.50;2.83;;;17.90;98.80;;;;;;5054287;28;20404;-70
2022/05/11 02:10:51;;;;;;;3.80;3.20;;;17.80;99.20;;;;;;5053508;28;20409;-68
2022/05/11 02:13:16;;;;;;;3.43;3.13;;;17.70;99.50;;;;;;5053950;28;20929;-69
2022/05/11 02:15:42;;;;;;;3.27;3.07;;;17.60;99.80;;;;;;5053636;28;20193;-69
2022/05/11 02:18:07;;;;;;;4.00;3.67;;;17.50;99.90;;;;;;5053848;28;20253;-69
2022/05/11 02:20:33;;;;;;;3.23;2.87;;;17.50;99.90;;;;;;5053479;28;20267;-69
2022/05/11 02:22:59;;;;;;;3.60;2.80;;;17.50;99.90;;;;;;5053585;28;20582;-69
2022/05/11 02:25:25;;;;;;;3.67;3.37;;;17.50;99.90;;;;;;5052599;28;20497;-68
2022/05/11 02:27:51;;;;;;;6.80;3.67;;;17.50;99.90;;;;;;5053372;28;20682;-69
2022/05/11 02:30:21;;;;;;;4.93;3.17;;;17.50;99.90;;;;;;5053183;28;20193;-68
2022/05/11 02:32:47;;;;;;;5.27;3.50;;;17.60;99.90;;;;;;5053276;28;20511;-68
2022/05/11 02:35:13;;;;;;;3.30;3.10;;;17.70;99.90;;;;;;5051998;28;20951;-69
2022/05/11 02:38:02;;;;;;;3.67;3.30;;;17.70;99.90;;;;;;5052953;28;20178;-69
2022/05/11 02:40:31;;;;;;;3.57;3.23;;;17.70;99.90;;;;;;5052599;28;20186;-69
2022/05/11 02:42:56;;;;;;;4.23;3.33;;;17.70;99.90;;;;;;5053230;28;20459;-68
2022/05/11 02:45:23;;;;;;;4.73;3.40;;;17.60;99.50;;;;;;5053374;28;20400;-69
2022/05/11 02:47:50;;;;;;;3.77;3.30;;;17.50;99.80;;;;;;5052790;28;20187;-69
2022/05/11 02:50:27;;;;;;;3.43;3.17;;;17.40;99.90;;;;;;5052838;28;20404;-68
2022/05/11 02:52:53;;;;;;;5.47;3.30;;;17.40;99.90;;;;;;5052911;28;20788;-68
2022/05/11 02:55:18;;;;;;;9.30;4.50;;;17.40;99.90;;;;;;5053172;28;20454;-68
2022/05/11 02:57:44;;;;;;;4.20;3.90;;;17.40;99.90;;;;;;5052605;28;20909;-70
2022/05/11 03:00:14;;;;;;;5.33;3.33;;;17.40;99.90;;;;;;5051891;28;20662;-69
2022/05/11 03:05:10;;;;;;;4.40;4.00;;;17.20;99.90;;;;;;5068512;28;20471;-72
2022/05/11 03:07:35;;;;;;;4.07;3.67;;;17.20;99.90;;;;;;5071100;28;20408;-71
2022/05/11 03:10:01;;;;;;;5.90;3.60;;;17.20;99.90;;;;;;5072233;28;20842;-71
2022/05/11 03:12:27;;;;;;;3.77;3.37;;;17.20;99.90;;;;;;5072538;28;20178;-71
2022/05/11 03:14:57;;;;;;;4.00;3.53;;;17.20;99.90;;;;;;5072480;28;20379;-71
2022/05/11 03:17:23;;;;;;;4.00;3.70;;;17.20;99.90;;;;;;5072198;28;20706;-70
2022/05/11 03:19:49;;;;;;;3.70;3.40;;;17.30;99.90;;;;;;5069983;28;20498;-71
2022/05/11 03:22:14;;;;;;;3.60;3.10;;;17.30;99.90;;;;;;5065597;28;20221;-71
2022/05/11 03:24:40;;;;;;;4.17;3.77;;;17.40;99.90;;;;;;5052131;28;20460;-71
2022/05/11 03:27:06;;;;;;;5.90;3.70;;;17.40;99.90;;;;;;5052243;28;20166;-71
2022/05/11 03:29:33;;;;;;;4.30;3.90;;;17.50;99.90;;;;;;5053065;28;20224;-71
2022/05/11 03:34:42;;;;;;;4.87;4.20;;;17.40;99.90;;;;;;5052392;28;20474;-71
2022/05/11 03:37:15;;;;;;;3.53;3.20;;;17.40;99.90;;;;;;5051877;28;20413;-71
2022/05/11 03:39:42;;;;;;;3.93;3.53;;;17.40;99.90;;;;;;5052790;28;20578;-71
2022/05/11 03:42:12;;;;;;;5.90;4.00;;;17.30;99.90;;;;;;5051865;28;20508;-71
2022/05/11 03:44:38;;;;;;;6.40;3.60;;;17.20;99.90;;;;;;5051942;28;20617;-71
2022/05/11 03:47:04;;;;;;;4.80;4.00;;;17.10;99.90;;;;;;5052143;28;20409;-71
2022/05/11 03:49:30;;;;;;;4.17;3.70;;;17.20;99.90;;;;;;5051821;28;20416;-71
2022/05/11 03:51:56;;;;;;;4.90;4.30;;;17.10;99.90;;;;;;5052982;28;20839;-71
2022/05/11 03:54:22;;;;;;;4.40;3.97;;;16.90;99.90;;;;;;5050666;28;20420;-71
2022/05/11 03:56:47;;;;;;;4.50;3.77;;;16.90;99.90;;;;;;5066784;28;20628;-72
2022/05/11 03:59:13;;;;;;;4.67;4.20;;;16.90;99.90;;;;;;5079810;28;20261;-71
2022/05/11 04:01:39;;;;;;;4.67;4.10;;;16.80;99.90;;;;;;5061880;28;20201;-73
2022/05/11 04:04:05;;;;;;;5.33;4.17;;;16.80;99.90;;;;;;5050017;28;20308;-72
2022/05/11 04:06:31;;;;;;;10.30;4.47;;;16.70;99.90;;;;;;5057837;28;20613;-71
2022/05/11 04:08:57;;;;;;;4.83;4.20;;;16.70;99.90;;;;;;5072297;28;20408;-71
2022/05/11 04:11:23;;;;;;;6.00;4.50;;;16.80;99.90;;;;;;5070136;28;20165;-71
2022/05/11 04:13:49;;;;;;;5.87;4.10;;;16.80;99.90;;;;;;5052154;28;20616;-71
2022/05/11 04:16:16;;;;;;;5.03;4.37;;;16.70;99.90;;;;;;5051655;28;20904;-71
2022/05/11 04:18:42;;;;;;;5.43;3.93;;;16.80;99.90;;;;;;5050360;28;20420;-71
2022/05/11 04:21:08;;;;;;;10.60;5.50;;;16.80;99.90;;;;;;5061271;28;20624;-70
2022/05/11 04:23:34;;;;;;;5.10;4.60;;;16.80;99.90;;;;;;5066497;28;20471;-70
2022/05/11 04:26:00;;;;;;;4.40;3.50;;;16.90;99.90;;;;;;5052052;28;20577;-71
2022/05/11 04:28:25;;;;;;;7.57;4.20;;;17.00;99.90;;;;;;5050110;28;20286;-70
2022/05/11 04:30:51;;;;;;;4.87;4.43;;;17.00;99.90;;;;;;5053662;28;20266;-69
2022/05/11 04:33:16;;;;;;;5.33;4.37;;;17.00;99.90;;;;;;5054385;28;20688;-70
2022/05/11 04:35:42;;;;;;;5.00;4.50;;;17.10;99.90;;;;;;5055342;28;20223;-69
2022/05/11 04:38:07;;;;;;;6.30;4.63;;;17.10;99.90;;;;;;5060591;28;20265;-70
2022/05/11 04:40:34;;;;;;;5.23;4.77;;;17.20;99.90;;;;;;5060827;28;20324;-70
2022/05/11 04:43:07;;;;;;;4.80;4.20;;;17.20;99.90;;;;;;5066153;28;20300;-69
2022/05/11 04:45:35;;;;;;;7.43;4.90;;;17.20;99.90;;;;;;5068924;28;20527;-70
2022/05/11 04:48:00;;;;;;;8.27;5.20;;;17.20;99.90;;;;;;5059952;28;20477;-69
2022/05/11 04:50:26;;;;;;;7.47;6.63;;;17.20;99.90;;;;;;5070579;28;20491;-70
2022/05/11 04:52:52;;;;;;;5.43;5.00;;;17.20;99.90;;;;;;5068179;28;20710;-69
2022/05/11 04:55:18;;;;;;;5.50;5.00;;;17.20;99.90;;;;;;5090341;28;20260;-70
2022/05/11 04:57:43;;;;;;;6.50;5.90;;;17.10;99.90;;;;;;5075021;28;20184;-70
2022/05/11 05:00:12;;;;;;;6.10;5.50;;;17.10;99.90;;;;;;5070319;28;20209;-70
2022/05/11 05:02:38;;;;;;;9.27;6.70;;;17.10;99.90;;;;;;5070436;28;20209;-71
2022/05/11 05:05:08;;;;;;;6.30;5.70;;;17.10;99.90;;;;;;5069812;28;20470;-70
2022/05/11 05:07:34;;;;;;;7.93;5.93;;;17.10;99.90;;;;;;5068698;28;20534;-71
2022/05/11 05:10:01;;;;;;;6.60;6.00;;;17.10;99.90;;;;;;5056031;28;20431;-70
2022/05/11 05:12:27;;;;;;;6.17;5.40;;;17.20;99.90;;;;;;5070293;28;20441;-70
2022/05/11 05:14:52;;;;;;;6.57;5.80;;;17.30;99.90;;;;;;5070128;28;20797;-70
2022/05/11 05:17:18;;;;;;;5.83;5.33;;;17.30;99.90;;;;;;5070129;28;20173;-71
2022/05/11 05:19:45;;;;;;;7.70;5.10;;;17.40;99.90;;;;;;5057563;28;20224;-71
2022/05/11 05:22:11;;;;;;;6.27;5.17;;;17.40;99.90;;;;;;5064140;28;20174;-70
2022/05/11 05:24:37;;;;;;;5.90;5.30;;;17.40;99.90;;;;;;5073040;28;20455;-71
2022/05/11 05:27:03;;;;;;;5.37;4.87;;;17.50;99.90;;;;;;5072635;28;20423;-72
2022/05/11 05:32:14;;;;;;;5.97;5.33;;;17.50;99.90;;;;;;5074347;28;20457;-71
2022/05/11 05:34:52;;;;;;;6.00;5.50;;;17.60;99.90;;;;;;5071805;28;20851;-71
2022/05/11 05:37:18;;;;;;;6.30;5.70;;;17.60;99.90;;;;;;5073624;28;20989;-69
2022/05/11 05:39:50;;;;;;;8.87;6.50;;;17.60;99.90;;;;;;5062936;28;20475;-73
2022/05/11 05:42:18;;;;;;;7.40;6.40;;;17.50;99.90;;;;;;5080396;28;20461;-70
2022/05/11 05:44:47;;;;;;;7.03;6.33;;;17.50;99.90;;;;;;5080326;28;20464;-69
2022/05/11 05:47:13;;;;;;;10.70;6.80;;;17.40;99.90;;;;;;5083803;28;20796;-70
2022/05/11 05:49:39;;;;;;;6.93;6.23;;;17.40;99.90;;;;;;5085190;28;20510;-70
2022/05/11 05:52:07;;;;;;;7.37;6.80;;;17.40;99.90;;;;;;5074389;28;20443;-70
2022/05/11 05:54:36;;;;;;;8.60;7.63;;;17.50;99.90;;;;;;5079585;28;20446;-69
2022/05/11 05:57:02;;;;;;;7.83;7.00;;;17.70;99.90;;;;;;5093732;28;20435;-70
2022/05/11 05:59:28;;;;;;;7.83;7.10;;;17.80;99.90;;;;;;5092972;28;20441;-70
2022/05/11 06:01:54;;;;;;;8.90;7.33;;;18.00;99.90;;;;;;5072599;28;20456;-70
2022/05/11 06:04:19;;;;;;;8.40;6.77;;;18.10;99.90;;;;;;5052482;28;20297;-69
2022/05/11 06:06:45;;;;;;;8.60;7.70;;;18.20;99.90;;;;;;5052424;28;20444;-70
2022/05/11 06:09:11;;;;;;;10.53;7.10;;;18.30;99.90;;;;;;5052836;28;20205;-70
2022/05/11 06:11:37;;;;;;;7.30;6.70;;;18.40;99.90;;;;;;5065627;28;20847;-69
2022/05/11 06:14:03;;;;;;;7.30;6.60;;;18.50;99.90;;;;;;5048605;28;20286;-70
2022/05/11 06:16:29;;;;;;;7.33;6.60;;;18.60;99.90;;;;;;5046560;28;20464;-69
2022/05/11 06:18:55;;;;;;;8.07;7.37;;;18.70;99.90;;;;;;5048115;28;20613;-69
2022/05/11 06:21:20;;;;;;;7.23;6.60;;;18.70;99.90;;;;;;5047590;28;20218;-69
2022/05/11 06:23:46;;;;;;;6.63;6.13;;;18.80;99.90;;;;;;5048442;28;20741;-70
2022/05/11 06:26:13;;;;;;;7.80;7.00;;;18.80;99.90;;;;;;5085715;28;20330;-69
2022/05/11 06:28:40;;;;;;;9.40;6.67;;;18.90;99.90;;;;;;5074056;28;20443;-69
2022/05/11 06:31:07;;;;;;;7.33;6.63;;;19.00;99.90;;;;;;5066988;28;20508;-69
2022/05/11 06:33:33;;;;;;;7.50;6.80;;;19.10;99.90;;;;;;5066443;28;20538;-69
2022/05/11 06:36:02;;;;;;;7.57;6.90;;;19.10;99.90;;;;;;5053988;28;20535;-69
2022/05/11 06:38:28;;;;;;;7.93;7.20;;;19.20;99.90;;;;;;5053064;28;20439;-69
2022/05/11 06:40:53;;;;;;;7.47;6.87;;;19.20;99.90;;;;;;5048376;28;20440;-69
2022/05/11 06:43:19;;;;;;;8.13;7.27;;;19.40;99.90;;;;;;5047911;28;20230;-70
2022/05/11 06:45:45;;;;;;;7.70;7.07;;;19.30;99.90;;;;;;5048161;28;20572;-69
2022/05/11 06:48:12;;;;;;;13.53;6.80;;;19.40;99.90;;;;;;5063012;28;20210;-69
2022/05/11 06:50:38;;;;;;;7.63;6.87;;;19.40;99.90;;;;;;5066404;28;20165;-69
2022/05/11 06:53:11;;;;;;;8.03;6.97;;;19.50;99.90;;;;;;5050553;28;20446;-69
2022/05/11 07:01:14;;;;;;;8.47;7.30;;;19.60;99.90;;;;;;5046061;28;20430;-69
2022/05/11 07:03:41;;;;;;;8.27;7.47;;;19.60;99.90;;;;;;5066370;28;20434;-68
2022/05/11 07:06:07;;;;;;;11.47;8.73;;;19.60;99.90;;;;;;5048637;28;20201;-68
2022/05/11 07:08:34;;;;;;;10.50;7.83;;;19.70;99.90;;;;;;5049485;28;20480;-68
2022/05/11 07:13:43;;;;;;;10.27;9.27;;;19.70;99.90;;;;;;5048287;28;20467;-68
2022/05/11 07:16:09;;;;;;;10.60;8.53;;;19.70;99.90;;;;;;5047177;28;20448;-69
2022/05/11 07:18:35;;;;;;;9.60;8.70;;;19.80;99.90;;;;;;5048829;28;20196;-68
2022/05/11 07:21:00;;;;;;;9.47;8.60;;;19.80;99.90;;;;;;5046773;28;20662;-68
2022/05/11 07:23:28;;;;;;;11.23;10.23;;;19.90;99.90;;;;;;5056628;28;20289;-68
2022/05/11 07:25:53;;;;;;;10.03;9.10;;;19.80;99.90;;;;;;5088345;28;20188;-68
2022/05/11 07:28:19;;;;;;;13.13;8.23;;;19.80;99.80;;;;;;5088594;28;20426;-67
2022/05/11 07:30:47;;;;;;;10.10;9.10;;;20.00;99.80;;;;;;5053099;28;20269;-69
2022/05/11 07:33:13;;;;;;;10.23;8.83;;;20.00;99.60;;;;;;5070071;28;20193;-69
2022/05/11 07:35:39;;;;;;;10.70;9.30;;;20.00;99.30;;;;;;5069965;28;20499;-69
2022/05/11 07:38:09;;;;;;;10.07;9.07;;;20.00;98.90;;;;;;5069605;28;20999;-69
2022/05/11 07:40:35;;;;;;;10.40;9.40;;;20.00;98.90;;;;;;5059735;28;20181;-69
2022/05/11 07:43:01;;;;;;;13.93;10.63;;;20.10;99.10;;;;;;5049854;28;20467;-69
2022/05/11 07:45:27;;;;;;;11.00;9.90;;;20.10;99.20;;;;;;5049916;28;20261;-70
2022/05/11 07:47:52;;;;;;;9.27;8.17;;;20.10;99.10;;;;;;5049650;28;20496;-69
2022/05/11 07:50:18;;;;;;;11.60;9.50;;;20.30;99.00;;;;;;5051266;28;20170;-70
2022/05/11 07:52:46;;;;;;;11.07;9.20;;;20.40;98.40;;;;;;5051830;28;20250;-70
2022/05/11 07:55:12;;;;;;;11.60;8.40;;;20.40;98.10;;;;;;5051820;28;20824;-69
2022/05/11 08:00:42;;;;;;;8.50;6.93;;;20.40;97.20;;;;;;5052608;28;20428;-69
2022/05/11 08:03:11;;;;;;;7.90;7.10;;;20.40;97.20;;;;;;5053013;28;20472;-69
2022/05/11 08:05:38;;;;;;;7.00;6.20;;;20.40;97.00;;;;;;5052758;28;20178;-69
2022/05/11 08:08:06;;;;;;;8.17;6.10;;;20.50;96.80;;;;;;5053536;28;20405;-69
2022/05/11 08:10:38;;;;;;;7.73;6.47;;;20.60;96.30;;;;;;5051299;28;20508;-70
2022/05/11 08:13:05;;;;;;;8.00;6.63;;;20.60;96.20;;;;;;5056923;28;20444;-69
2022/05/11 08:15:32;;;;;;;9.00;6.63;;;20.70;96.40;;;;;;5055874;28;20413;-69
2022/05/11 08:17:59;;;;;;;6.73;6.13;;;20.80;96.00;;;;;;5054410;28;20991;-69
2022/05/11 08:20:28;;;;;;;6.67;5.90;;;20.90;95.90;;;;;;5053360;28;20839;-69
2022/05/11 08:22:54;;;;;;;5.80;4.90;;;20.90;95.80;;;;;;5054927;28;20452;-69
2022/05/11 08:25:24;;;;;;;6.67;5.20;;;20.90;95.70;;;;;;5052551;28;20603;-70
2022/05/11 08:27:51;;;;;;;6.03;5.43;;;21.10;95.50;;;;;;5052901;28;20818;-69
2022/05/11 08:33:23;;;;;;;5.33;4.83;;;21.20;95.40;;;;;;5057410;28;20447;-69
2022/05/11 08:35:51;;;;;;;5.00;4.60;;;21.40;95.30;;;;;;5054211;28;20945;-70
2022/05/11 08:38:18;;;;;;;9.00;5.73;;;21.50;95.10;;;;;;5074842;28;20443;-69
2022/05/11 08:41:13;;;;;;;10.97;5.87;;;21.50;94.80;;;;;;5074938;28;20507;-69
2022/05/11 08:43:40;;;;;;;5.80;5.17;;;21.50;95.00;;;;;;5074623;28;20542;-69
2022/05/11 08:46:43;;;;;;;5.40;4.93;;;21.60;94.60;;;;;;5073170;28;20408;-69
2022/05/11 08:49:08;;;;;;;5.90;5.30;;;21.50;94.50;;;;;;5053565;28;20491;-70
2022/05/11 08:51:41;;;;;;;6.60;4.60;;;21.50;94.50;;;;;;5052908;28;20845;-69
2022/05/11 08:54:19;;;;;;;4.53;4.20;;;21.60;94.60;;;;;;5051986;28;20214;-70
2022/05/11 08:56:45;;;;;;;5.80;5.30;;;21.70;94.30;;;;;;5052611;28;20491;-69
2022/05/11 08:59:19;;;;;;;6.70;4.90;;;21.70;94.10;;;;;;5053400;28;20413;-69
2022/05/11 09:01:54;;;;;;;5.70;4.40;;;21.70;94.20;;;;;;5054936;28;20415;-69
2022/05/11 09:04:25;;;;;;;4.90;4.50;;;21.90;94.10;;;;;;5086038;22;20490;-71
2022/05/11 09:06:51;;;;;;;5.60;4.93;;;22.00;93.90;;;;;;5077188;28;20520;-69
2022/05/11 09:09:17;;;;;;;4.73;4.30;;;22.00;93.60;;;;;;5077120;28;20900;-70
2022/05/11 09:11:51;;;;;;;4.77;4.27;;;22.00;93.30;;;;;;5078033;28;20415;-71
2022/05/11 09:14:28;;;;;;;4.80;4.40;;;22.10;93.50;;;;;;5080326;28;20428;-70
2022/05/11 09:16:54;;;;;;;6.60;4.53;;;22.00;93.30;;;;;;5086825;28;20419;-70
2022/05/11 09:19:26;;;;;;;6.53;4.47;;;22.10;93.00;;;;;;5087282;28;20412;-70
2022/05/11 09:22:12;;;;;;;5.07;4.57;;;22.10;93.10;;;;;;5086489;28;20411;-70
2022/05/11 09:24:47;;;;;;;6.37;4.17;;;22.10;92.90;;;;;;5081152;28;20528;-71
2022/05/11 09:27:34;;;;;;;5.37;4.60;;;22.30;93.00;;;;;;5077272;28;20424;-71
2022/05/11 09:30:02;;;;;;;5.30;4.90;;;22.30;93.00;;;;;;5080499;28;20419;-68
2022/05/11 09:32:32;;;;;;;5.47;4.77;;;22.30;92.80;;;;;;5091172;28;20480;-71
2022/05/11 09:35:25;;;;;;;5.37;4.83;;;22.20;92.70;;;;;;5091006;28;20434;-69
2022/05/11 09:38:31;;;;;;;8.73;5.00;;;22.30;92.70;;;;;;5090603;28;20403;-69
2022/05/11 09:41:05;;;;;;;5.10;4.60;;;22.20;92.70;;;;;;5054421;28;20422;-69
2022/05/11 09:43:35;;;;;;;5.10;4.67;;;22.30;92.60;;;;;;5082328;28;20447;-70
2022/05/11 09:46:17;;;;;;;5.87;5.00;;;22.30;92.70;;;;;;5057432;28;20932;-70
2022/05/11 09:48:58;;;;;;;5.33;4.87;;;22.40;92.60;;;;;;5075847;28;20404;-69
2022/05/11 09:51:38;;;;;;;5.03;4.53;;;22.40;92.60;;;;;;5074442;28;20427;-70
2022/05/11 09:54:22;;;;;;;5.30;4.90;;;22.40;92.40;;;;;;5074898;28;20432;-70
2022/05/11 09:57:01;;;;;;;5.97;5.37;;;22.40;92.50;;;;;;5056977;28;20790;-69
2022/05/11 09:59:37;;;;;;;5.40;4.90;;;22.40;92.40;;;;;;5074382;28;20469;-69
2022/05/11 10:02:23;;;;;;;6.10;4.77;;;22.50;92.50;;;;;;5073813;28;20423;-70
2022/05/11 10:05:06;;;;;;;8.80;5.47;;;22.50;92.40;;;;;;5074494;28;20526;-69
2022/05/11 10:07:55;;;;;;;5.30;4.73;;;22.70;92.30;;;;;;5074758;28;20407;-70
2022/05/11 10:10:31;;;;;;;4.73;4.33;;;22.70;92.30;;;;;;5063512;28;20427;-70
2022/05/11 10:13:14;;;;;;;7.03;4.73;;;22.70;92.30;;;;;;5073628;28;20468;-71
2022/05/11 10:24:40;;;;;;;5.97;5.47;;;22.90;91.80;;;;;;5073929;28;20508;-69
2022/05/11 10:27:38;;;;;;;7.60;5.17;;;23.00;91.50;;;;;;5073589;28;20503;-70
2022/05/11 10:30:35;;;;;;;4.87;4.37;;;22.90;91.40;;;;;;5078677;28;20396;-69
2022/05/11 10:33:51;;;;;;;8.23;5.03;;;23.00;91.40;;;;;;5073166;28;20538;-69
2022/05/11 10:36:44;;;;;;;5.93;5.30;;;23.00;91.20;;;;;;5029496;28;20450;-69
2022/05/11 10:39:18;;;;;;;5.50;5.00;;;23.00;91.10;;;;;;5073389;28;20432;-70
2022/05/11 10:41:55;;;;;;;8.07;5.70;;;22.90;91.10;;;;;;5073017;28;20907;-69
2022/05/11 10:44:44;;;;;;;6.90;5.60;;;22.90;91.30;;;;;;5073285;28;20463;-70
2022/05/11 10:47:38;;;;;;;10.33;5.00;;;23.00;91.30;;;;;;5073541;28;20931;-69
2022/05/11 10:50:20;;;;;;;15.77;7.40;;;23.00;91.40;;;;;;5073536;28;20399;-70
2022/05/11 10:53:04;;;;;;;5.67;5.13;;;23.10;91.60;;;;;;5073323;28;20400;-69
2022/05/11 10:56:09;;;;;;;7.63;6.30;;;23.20;91.00;;;;;;5069495;28;20464;-69
2022/05/11 10:59:00;;;;;;;6.67;6.00;;;23.20;91.10;;;;;;5087768;28;20450;-68
2022/05/11 11:01:34;;;;;;;8.23;5.37;;;23.10;91.00;;;;;;5079231;28;20483;-70
2022/05/11 11:04:18;;;;;;;6.07;5.57;;;23.10;91.10;;;;;;5069063;28;20845;-68
2022/05/11 11:07:17;;;;;;;6.93;5.40;;;23.20;91.10;;;;;;5079461;28;20442;-68
2022/05/11 11:10:19;;;;;;;8.20;5.40;;;23.30;91.20;;;;;;5033035;28;20489;-68
2022/05/11 11:12:56;;;;;;;5.10;4.57;;;23.20;91.10;;;;;;5092057;28;20434;-70
2022/05/11 11:15:26;;;;;;;6.40;5.70;;;23.30;91.10;;;;;;5073208;28;20451;-69
2022/05/11 11:17:55;;;;;;;8.00;5.50;;;23.30;90.70;;;;;;5092336;28;20434;-69
2022/05/11 11:20:22;;;;;;;6.40;4.90;;;23.20;90.80;;;;;;5052857;28;20463;-69
2022/05/11 11:23:15;;;;;;;6.57;4.80;;;23.30;90.70;;;;;;5071375;28;20543;-69
2022/05/11 11:25:55;;;;;;;6.20;5.23;;;23.30;90.30;;;;;;5061681;28;20468;-68
2022/05/11 11:28:34;;;;;;;4.70;3.97;;;23.30;90.30;;;;;;5047110;28;20443;-69
2022/05/11 11:30:59;;;;;;;5.17;4.63;;;23.30;89.90;;;;;;5065367;28;20478;-67
2022/05/11 11:33:26;;;;;;;4.80;4.40;;;23.30;89.60;;;;;;5068938;28;20427;-71
2022/05/11 11:35:58;;;;;;;17.27;5.20;;;23.40;89.80;;;;;;5046039;28;20217;-72
2022/05/11 11:38:47;;;;;;;4.60;4.20;;;23.40;89.40;;;;;;5075148;28;20517;-70
2022/05/11 11:41:20;;;;;;;6.47;4.60;;;23.30;90.10;;;;;;5066331;28;20563;-68
2022/05/11 11:44:26;;;;;;;6.97;5.23;;;23.30;90.10;;;;;;5065327;28;20952;-69
2022/05/11 11:46:53;;;;;;;4.97;4.47;;;23.40;90.10;;;;;;5080373;28;20426;-66
2022/05/11 11:49:18;;;;;;;4.50;4.10;;;23.40;90.00;;;;;;5072506;28;20991;-68
2022/05/11 11:52:00;;;;;;;6.90;4.80;;;23.50;89.90;;;;;;5073785;28;20624;-68
2022/05/11 11:54:37;;;;;;;5.90;4.73;;;23.40;89.60;;;;;;5078314;28;20212;-69
2022/05/11 11:57:23;;;;;;;6.43;4.40;;;23.50;89.60;;;;;;5073676;28;20866;-67
2022/05/11 12:00:05;;;;;;;6.13;5.37;;;23.50;89.30;;;;;;5049834;28;20433;-67
2022/05/11 12:02:42;;;;;;;6.03;4.67;;;23.70;89.10;;;;;;5067503;28;20922;-68
2022/05/11 12:05:24;;;;;;;9.73;4.23;;;23.70;88.90;;;;;;5066879;28;20462;-67
2022/05/11 12:16:27;;;;;;;4.70;4.33;;;23.70;89.50;;;;;;5079464;28;20442;-68
2022/05/11 12:19:06;;;;;;;4.53;4.13;;;23.70;89.70;;;;;;5054455;28;20443;-69
2022/05/11 12:21:34;;;;;;;6.10;4.50;;;23.80;89.70;;;;;;5084621;28;20517;-68
2022/05/11 12:24:04;;;;;;;11.10;5.20;;;23.80;89.70;;;;;;5069765;28;20494;-68
2022/05/11 12:26:40;;;;;;;10.50;4.83;;;23.80;89.90;;;;;;5078189;28;20443;-69
2022/05/11 12:32:00;;;;;;;5.30;4.37;;;23.80;89.90;;;;;;5056043;28;20532;-69
2022/05/11 12:34:28;;;;;;;6.57;4.93;;;23.90;89.90;;;;;;5082187;28;20455;-69
2022/05/11 12:36:54;;;;;;;9.73;4.87;;;24.00;89.40;;;;;;5073301;28;21313;-67
2022/05/11 12:39:35;;;;;;;5.23;4.77;;;24.00;89.20;;;;;;5071152;28;20460;-71
2022/05/11 12:42:05;;;;;;;5.97;5.40;;;24.10;89.50;;;;;;5073933;28;20490;-68
2022/05/11 12:44:34;;;;;;;4.93;4.53;;;24.00;89.10;;;;;;5074056;28;20517;-68
2022/05/11 12:47:01;;;;;;;8.48;5.38;;;24.10;89.20;;;;;;5071584;28;20459;-69
2022/05/11 12:49:28;;;;;;;7.43;5.53;;;24.10;89.40;;;;;;5073567;28;20177;-68
2022/05/11 12:51:57;;;;;;;5.00;4.50;;;24.10;89.40;;;;;;5055990;28;20408;-67
2022/05/11 12:54:26;;;;;;;7.40;4.67;;;24.20;89.50;;;;;;5073632;28;20450;-70
2022/05/11 12:57:08;;;;;;;6.03;5.30;;;24.20;89.60;;;;;;5074297;28;20457;-68
2022/05/11 12:59:35;;;;;;;5.23;4.73;;;24.30;89.80;;;;;;5055016;28;20773;-68
2022/05/11 13:02:38;;;;;;;5.70;5.30;;;24.30;88.80;;;;;;5055875;28;20458;-69
2022/05/11 13:05:08;;;;;;;6.17;5.40;;;24.40;88.50;;;;;;4993752;28;20470;-68
2022/05/11 13:07:43;;;;;;;6.77;6.00;;;24.50;88.80;;;;;;4993935;28;20426;-69
2022/05/11 13:10:16;;;;;;;5.90;5.50;;;24.50;88.30;;;;;;4993469;28;20508;-68
2022/05/11 13:12:49;;;;;;;6.93;5.60;;;24.60;88.20;;;;;;4993775;28;20399;-69
2022/05/11 13:15:29;;;;;;;5.50;4.70;;;24.60;88.00;;;;;;4993826;28;20535;-69
2022/05/11 13:17:55;;;;;;;11.73;6.73;;;24.80;87.90;;;;;;4994083;28;20408;-69
2022/05/11 13:20:25;;;;;;;5.37;4.87;;;24.80;87.50;;;;;;4991970;28;20433;-69
2022/05/11 13:22:56;;;;;;;11.53;5.67;;;24.80;87.20;;;;;;4994082;28;20243;-68
2022/05/11 13:25:39;;;;;;;6.63;5.53;;;24.90;87.30;;;;;;4995240;28;20427;-70
2022/05/11 13:28:26;;;;;;;8.73;5.60;;;25.10;86.70;;;;;;4996290;28;20413;-70
2022/05/11 13:30:56;;;;;;;5.70;5.20;;;25.20;86.40;;;;;;4992418;28;20511;-69
2022/05/11 13:33:48;;;;;;;10.27;6.43;;;25.30;86.20;;;;;;4954442;28;20516;-70
2022/05/11 13:36:22;;;;;;;6.20;4.43;;;25.50;85.50;;;;;;4969763;28;20417;-69
2022/05/11 13:39:11;;;;;;;10.03;6.00;;;25.60;85.40;;;;;;4973281;28;20427;-69
2022/05/11 13:41:41;;;;;;;11.27;6.37;;;25.60;85.40;;;;;;5043286;28;20459;-69
2022/05/11 13:44:34;;;;;;;5.00;4.60;;;25.80;84.90;;;;;;5054130;28;20464;-69
2022/05/11 13:49:47;;;;;;;5.77;4.90;;;25.90;83.90;;;;;;5057607;28;20402;-69
2022/05/11 13:52:39;;;;;;;7.30;5.20;;;25.90;83.60;;;;;;5073006;28;20459;-68
2022/05/11 13:55:06;;;;;;;5.30;4.83;;;25.90;83.50;;;;;;5066755;28;20924;-68